This is the latest recevied weather packets stored in our database for station/object N2RDT. If no packets are shown the sender has not sent any weather packets the latest 10 day(s).
| Time | Temp. | Humidity | Pressure | Rain* | Wind** | Luminosity | Snow |
|---|---|---|---|---|---|---|---|
| 1777579586 | 22.22° C | 48% | 1009.8 hPa | 0 mm | - | 382 W/m² | - |
| 1777579280 | 22.22° C | 49% | 1009.7 hPa | 0 mm | - | 280 W/m² | - |
| 1777578976 | 22.22° C | 49% | 1009.6 hPa | 0 mm | - | 316 W/m² | - |
| 1777578671 | 21.67° C | 50% | 1009.8 hPa | 0 mm | - | 296 W/m² | - |
| 1777578370 | 22.22° C | 49% | 1009.7 hPa | 0 mm | - | 829 W/m² | - |
| 1777578066 | 22.78° C | 49% | 1009.8 hPa | 0 mm | - | 370 W/m² | - |
| 1777577761 | 22.22° C | 48% | 1009.8 hPa | 0 mm | - | 399 W/m² | - |
| 1777577458 | 22.22° C | 48% | 1009.6 hPa | 0 mm | - | 363 W/m² | - |
| 1777577155 | 22.22° C | 48% | 1009.8 hPa | 0 mm | - | 702 W/m² | - |
| 1777576852 | 22.22° C | 51% | 1009.8 hPa | 0 mm | - | 374 W/m² | - |
| 1777576550 | 22.78° C | 47% | 1009.8 hPa | 0 mm | - | 488 W/m² | - |
| 1777576247 | 21.67° C | 53% | 1009.8 hPa | 0 mm | - | 991 W/m² | - |
| 1777575943 | 22.78° C | 47% | 1009.8 hPa | 0 mm | - | 417 W/m² | - |
| 1777575639 | 22.78° C | 49% | 1009.6 hPa | 0 mm | - | 1026 W/m² | - |
| 1777575336 | 22.78° C | 50% | 1009.5 hPa | 0 mm | - | 356 W/m² | - |
| 1777575032 | 22.78° C | 51% | 1009.6 hPa | 0 mm | - | 1043 W/m² | - |
| 1777574728 | 21.67° C | 53% | 1009.7 hPa | 0 mm | - | 817 W/m² | - |
| 1777574426 | 21.67° C | 51% | 1009.6 hPa | 0 mm | - | 942 W/m² | - |
| 1777574121 | 21.67° C | 52% | 1009.7 hPa | 0 mm | - | 925 W/m² | - |
| 1777573817 | 21.67° C | 52% | 1009.8 hPa | 0 mm | - | 925 W/m² | - |
| 1777573512 | 21.67° C | 52% | 1009.7 hPa | 0 mm | - | 925 W/m² | - |
| 1777573209 | 21.67° C | 52% | 1009.6 hPa | 0 mm | - | 925 W/m² | - |
| 1777572905 | 21.67° C | 52% | 1009.8 hPa | 0 mm | - | 925 W/m² | - |
| 1777572601 | 21.67° C | 52% | 1009.6 hPa | 0 mm | - | 925 W/m² | - |
| 1777572301 | 21.11° C | 55% | 1009.8 hPa | 0 mm | - | 930 W/m² | - |
* Rain latest hour (hover to see other rain measurements)
** Current wind speed in m/s (hover to see current wind gust speed)